createdAt,value
2023-10-01T00:01:54.533Z,20.83
2023-10-01T00:04:21.740Z,20.82
2023-10-01T00:06:48.803Z,20.70
2023-10-01T00:09:20.984Z,20.91
2023-10-01T00:11:48.091Z,20.85
2023-10-01T00:14:28.234Z,20.80
2023-10-01T00:17:00.442Z,20.67
2023-10-01T00:19:27.478Z,20.74
2023-10-01T00:21:59.082Z,20.60
2023-10-01T00:24:25.657Z,20.61
2023-10-01T00:26:53.318Z,20.41
2023-10-01T00:29:23.187Z,20.50
2023-10-01T00:31:51.071Z,20.25
2023-10-01T00:34:23.528Z,20.40
2023-10-01T00:36:50.530Z,20.51
2023-10-01T00:39:25.110Z,20.31
2023-10-01T00:41:57.394Z,20.49
2023-10-01T00:44:25.689Z,20.50
2023-10-01T00:46:55.278Z,20.51
2023-10-01T00:49:24.368Z,20.45
2023-10-01T00:51:52.330Z,19.99
2023-10-01T00:54:29.390Z,20.42
2023-10-01T00:57:01.953Z,20.26
2023-10-01T00:59:29.009Z,20.37
2023-10-01T01:01:56.071Z,20.18
2023-10-01T01:04:24.520Z,19.93
2023-10-01T01:06:51.696Z,20.24
2023-10-01T01:09:21.282Z,20.25
2023-10-01T01:11:48.965Z,20.16
2023-10-01T01:14:17.336Z,20.32
2023-10-01T01:16:46.694Z,20.21
2023-10-01T01:19:13.692Z,20.41
2023-10-01T01:21:43.558Z,20.36
2023-10-01T01:24:11.082Z,20.36
2023-10-01T01:26:44.528Z,20.35
2023-10-01T01:29:30.697Z,20.32
2023-10-01T01:32:25.270Z,20.08
2023-10-01T01:35:01.269Z,20.01
2023-10-01T01:37:53.949Z,20.24
2023-10-01T01:40:33.541Z,20.27
2023-10-01T01:43:17.228Z,19.89
2023-10-01T01:45:49.361Z,20.10
2023-10-01T01:48:45.462Z,20.05
2023-10-01T01:51:20.345Z,20.02
2023-10-01T01:53:51.777Z,19.64
2023-10-01T01:56:20.210Z,19.37
2023-10-01T01:58:48.761Z,20.35
2023-10-01T02:01:15.617Z,19.78
2023-10-01T02:04:09.078Z,19.96
2023-10-01T02:06:36.255Z,20.01
2023-10-01T02:09:17.287Z,19.91
2023-10-01T02:11:44.619Z,19.67
2023-10-01T02:14:34.007Z,19.70
2023-10-01T02:17:24.265Z,19.58
2023-10-01T02:20:05.952Z,19.55
2023-10-01T02:22:41.029Z,19.47
2023-10-01T02:25:18.025Z,19.56
2023-10-01T02:28:11.861Z,19.19
2023-10-01T02:30:50.265Z,19.13
2023-10-01T02:33:16.940Z,19.40
2023-10-01T02:35:51.959Z,19.31
2023-10-01T02:38:45.410Z,19.32
2023-10-01T02:41:22.439Z,19.29
2023-10-01T02:43:55.184Z,19.19
2023-10-01T02:46:33.826Z,19.31
2023-10-01T02:49:12.117Z,19.28
2023-10-01T02:51:39.511Z,19.15
2023-10-01T02:54:16.893Z,19.27
2023-10-01T02:57:16.705Z,19.16
2023-10-01T03:00:05.427Z,19.32
2023-10-01T03:02:43.787Z,19.36
2023-10-01T03:05:28.421Z,19.24
2023-10-01T03:08:09.742Z,19.13
2023-10-01T03:10:52.365Z,19.32
2023-10-01T03:13:38.114Z,19.18
2023-10-01T03:16:29.367Z,19.28
2023-10-01T03:19:10.548Z,19.20
2023-10-01T03:22:04.115Z,19.20
2023-10-01T03:24:46.594Z,19.15
2023-10-01T03:27:39.635Z,19.31
2023-10-01T03:30:25.040Z,19.17
2023-10-01T03:33:02.521Z,19.33
2023-10-01T03:35:36.919Z,19.07
2023-10-01T03:38:15.793Z,19.17
2023-10-01T03:41:07.545Z,19.19
2023-10-01T03:43:36.302Z,19.38
2023-10-01T03:46:28.990Z,18.42
2023-10-01T03:49:25.872Z,19.26
2023-10-01T03:52:09.739Z,18.89
2023-10-01T03:54:55.988Z,19.16
2023-10-01T03:57:26.498Z,19.25
2023-10-01T03:59:58.846Z,19.30
2023-10-01T04:02:29.827Z,19.25
2023-10-01T04:05:00.078Z,19.11
2023-10-01T04:07:27.961Z,19.24
2023-10-01T04:09:55.953Z,19.35
2023-10-01T04:12:35.053Z,19.03
2023-10-01T04:15:05.927Z,19.03
2023-10-01T04:17:37.615Z,19.33
2023-10-01T04:20:14.852Z,19.16
2023-10-01T04:22:41.928Z,19.19
2023-10-01T04:25:17.323Z,18.72
2023-10-01T04:27:49.053Z,18.67
2023-10-01T04:30:28.955Z,19.08
2023-10-01T04:33:27.336Z,19.00
2023-10-01T04:36:09.165Z,18.99
2023-10-01T04:38:36.787Z,18.96
2023-10-01T04:41:08.886Z,18.94
2023-10-01T04:43:46.388Z,18.98
2023-10-01T04:46:13.330Z,19.03
2023-10-01T04:48:40.612Z,19.16
2023-10-01T04:51:09.195Z,19.18
2023-10-01T04:53:36.064Z,19.39
2023-10-01T04:56:08.482Z,18.96
2023-10-01T04:58:38.564Z,19.22
2023-10-01T05:01:12.554Z,19.02
2023-10-01T05:03:41.038Z,18.72
2023-10-01T05:06:22.157Z,18.90
2023-10-01T05:08:58.188Z,18.77
2023-10-01T05:11:33.415Z,18.01
2023-10-01T05:14:00.954Z,18.81
2023-10-01T05:16:28.077Z,18.83
2023-10-01T05:19:14.871Z,18.67
2023-10-01T05:21:49.401Z,18.69
2023-10-01T05:24:39.607Z,18.62
2023-10-01T05:27:19.583Z,18.34
2023-10-01T05:29:47.203Z,18.87
2023-10-01T05:32:14.824Z,18.92
2023-10-01T05:34:47.676Z,18.79
2023-10-01T05:37:26.767Z,18.87
2023-10-01T05:42:27.402Z,18.86
2023-10-01T05:44:56.282Z,19.00
2023-10-01T05:47:47.229Z,19.00
2023-10-01T05:50:15.837Z,18.88
2023-10-01T05:52:42.787Z,18.99
2023-10-01T05:55:20.982Z,18.79
2023-10-01T05:57:51.589Z,19.06
2023-10-01T06:00:29.686Z,19.16
2023-10-01T06:03:02.690Z,19.31
2023-10-01T06:05:44.230Z,19.36
2023-10-01T06:08:16.578Z,18.81
2023-10-01T06:11:06.641Z,19.48
2023-10-01T06:13:41.081Z,19.45
2023-10-01T06:16:17.699Z,19.43
2023-10-01T06:18:52.119Z,19.40
2023-10-01T06:21:29.646Z,19.44
2023-10-01T06:24:05.059Z,19.28
2023-10-01T06:26:43.819Z,19.51
2023-10-01T06:29:12.771Z,19.03
2023-10-01T06:31:51.977Z,19.57
2023-10-01T06:34:23.181Z,19.46
2023-10-01T06:36:52.850Z,19.42
2023-10-01T06:39:28.027Z,19.62
2023-10-01T06:42:17.323Z,19.40
2023-10-01T06:44:48.157Z,19.69
2023-10-01T06:47:18.318Z,19.73
2023-10-01T06:50:11.187Z,19.83
2023-10-01T06:52:43.716Z,19.90
2023-10-01T06:55:27.738Z,19.97
2023-10-01T06:58:02.074Z,20.00
2023-10-01T07:00:35.782Z,19.91
2023-10-01T07:03:21.545Z,20.18
2023-10-01T07:05:57.442Z,20.31
2023-10-01T07:08:39.027Z,20.40
2023-10-01T07:11:13.256Z,20.42
2023-10-01T07:13:40.367Z,20.47
2023-10-01T07:16:09.370Z,20.59
2023-10-01T07:18:38.846Z,20.53
2023-10-01T07:21:10.609Z,20.60
2023-10-01T07:23:38.986Z,20.85
2023-10-01T07:26:13.716Z,20.94
2023-10-01T07:28:46.872Z,20.38
2023-10-01T07:31:16.932Z,21.06
2023-10-01T07:33:43.691Z,21.23
2023-10-01T07:36:12.706Z,21.24
2023-10-01T07:38:55.303Z,21.06
2023-10-01T07:41:28.599Z,21.39
2023-10-01T07:43:56.811Z,21.40
2023-10-01T07:46:35.602Z,21.49
2023-10-01T07:49:03.038Z,21.48
2023-10-01T07:51:39.732Z,21.58
2023-10-01T07:54:13.911Z,21.19
2023-10-01T07:56:49.631Z,21.45
2023-10-01T07:59:19.045Z,21.90
2023-10-01T08:01:47.376Z,21.94
2023-10-01T08:04:38.186Z,21.81
2023-10-01T08:07:18.247Z,21.99
2023-10-01T08:09:59.168Z,21.60
2023-10-01T08:12:32.117Z,21.96
2023-10-01T08:15:17.475Z,21.97
2023-10-01T08:17:46.398Z,22.15
2023-10-01T08:20:22.845Z,22.01
2023-10-01T08:23:11.910Z,22.10
2023-10-01T08:25:49.288Z,22.28
2023-10-01T08:28:23.561Z,21.98
2023-10-01T08:31:32.188Z,22.18
2023-10-01T08:34:22.001Z,21.84
2023-10-01T08:37:06.237Z,22.17
2023-10-01T08:39:49.913Z,22.02
2023-10-01T08:42:30.265Z,22.47
2023-10-01T08:45:11.044Z,22.40
2023-10-01T08:47:46.399Z,22.45
2023-10-01T08:50:29.295Z,22.18
2023-10-01T08:53:27.552Z,22.73
2023-10-01T08:55:56.530Z,22.66
2023-10-01T08:58:23.252Z,22.88
2023-10-01T09:00:54.480Z,22.87
2023-10-01T09:03:42.553Z,23.01
2023-10-01T09:06:26.346Z,23.28
2023-10-01T09:08:57.389Z,23.43
2023-10-01T09:11:51.006Z,23.60
2023-10-01T09:14:21.732Z,23.79
2023-10-01T09:17:02.280Z,23.78
2023-10-01T09:19:52.009Z,23.97
2023-10-01T09:22:32.017Z,23.95
2023-10-01T09:25:20.427Z,24.32
2023-10-01T09:28:21.083Z,24.49
2023-10-01T09:31:21.205Z,24.53
2023-10-01T09:33:49.512Z,24.67
2023-10-01T09:36:48.881Z,24.79
2023-10-01T09:39:25.789Z,24.94
2023-10-01T09:41:56.849Z,25.16
2023-10-01T09:44:25.454Z,25.23
2023-10-01T09:47:13.158Z,25.38
2023-10-01T09:49:59.562Z,25.68
2023-10-01T09:53:01.071Z,25.68
2023-10-01T09:55:40.545Z,25.85
2023-10-01T09:58:11.570Z,25.57
2023-10-01T10:00:42.041Z,26.18
2023-10-01T10:03:13.808Z,26.13
2023-10-01T10:05:42.020Z,26.15
2023-10-01T10:08:30.326Z,26.50
2023-10-01T10:11:08.776Z,26.77
2023-10-01T10:13:40.598Z,26.94
2023-10-01T10:16:38.741Z,26.87
2023-10-01T10:19:22.687Z,27.09
2023-10-01T10:22:01.580Z,27.37
2023-10-01T10:24:56.407Z,27.59
2023-10-01T10:27:26.492Z,27.77
2023-10-01T10:30:16.807Z,27.60
2023-10-01T10:33:15.803Z,28.09
2023-10-01T10:35:54.464Z,28.25
2023-10-01T10:38:54.200Z,28.44
2023-10-01T10:41:26.911Z,28.56
2023-10-01T10:44:17.188Z,28.66
2023-10-01T10:47:13.485Z,28.69
2023-10-01T10:50:05.845Z,28.93
2023-10-01T10:52:46.566Z,28.89
2023-10-01T10:55:22.361Z,28.86
2023-10-01T10:57:53.147Z,28.91
2023-10-01T11:00:29.407Z,28.69
2023-10-01T11:02:58.767Z,29.08
2023-10-01T11:05:55.730Z,29.23
2023-10-01T11:08:29.304Z,29.49
2023-10-01T11:10:56.701Z,29.35
2023-10-01T11:13:51.763Z,29.76
2023-10-01T11:16:18.856Z,29.81
2023-10-01T11:18:46.241Z,29.67
2023-10-01T11:21:33.390Z,29.74
2023-10-01T11:24:02.199Z,29.91
2023-10-01T11:26:28.891Z,29.50
2023-10-01T11:29:02.482Z,29.95
2023-10-01T11:31:33.112Z,29.63
2023-10-01T11:34:23.287Z,29.50
2023-10-01T11:36:58.197Z,29.48
2023-10-01T11:39:39.669Z,28.86
2023-10-01T11:42:20.644Z,29.08
2023-10-01T11:44:57.747Z,28.84
2023-10-01T11:47:35.653Z,28.59
2023-10-01T11:50:11.754Z,28.69
2023-10-01T11:52:44.800Z,28.70
2023-10-01T11:55:25.690Z,28.72
2023-10-01T11:57:55.293Z,28.61
2023-10-01T12:00:44.618Z,28.52
2023-10-01T12:03:28.129Z,28.47
2023-10-01T12:05:57.930Z,28.60
2023-10-01T12:08:40.638Z,28.31
2023-10-01T12:11:31.899Z,27.81
2023-10-01T12:14:07.790Z,27.86
2023-10-01T12:16:34.978Z,28.10
2023-10-01T12:19:22.079Z,28.12
2023-10-01T12:21:49.991Z,27.89
2023-10-01T12:24:19.424Z,27.83
2023-10-01T12:26:49.726Z,27.83
2023-10-01T12:29:22.245Z,27.75
2023-10-01T12:32:07.114Z,27.89
2023-10-01T12:34:37.005Z,28.06
2023-10-01T12:37:36.219Z,27.98
2023-10-01T12:40:21.051Z,27.78
2023-10-01T12:42:53.959Z,27.96
2023-10-01T12:45:20.929Z,27.89
2023-10-01T12:48:13.509Z,27.82
2023-10-01T12:51:01.214Z,27.95
2023-10-01T12:53:28.767Z,27.45
2023-10-01T12:55:55.538Z,27.10
2023-10-01T12:58:38.514Z,27.52
2023-10-01T13:01:07.453Z,27.83
2023-10-01T13:03:45.625Z,27.80
2023-10-01T13:06:14.364Z,27.74
2023-10-01T13:08:45.697Z,27.82
2023-10-01T13:11:40.117Z,27.53
2023-10-01T13:14:27.265Z,27.65
2023-10-01T13:17:05.456Z,27.19
2023-10-01T13:19:36.139Z,27.61
2023-10-01T13:22:05.668Z,27.58
2023-10-01T13:24:34.111Z,27.82
2023-10-01T13:27:17.137Z,27.52
2023-10-01T13:29:53.340Z,26.98
2023-10-01T13:32:35.923Z,27.22
2023-10-01T13:35:28.831Z,27.49
2023-10-01T13:38:16.469Z,27.58
2023-10-01T13:41:03.938Z,27.47
2023-10-01T13:43:49.829Z,27.47
2023-10-01T13:46:38.664Z,27.53
2023-10-01T13:49:26.008Z,27.38
2023-10-01T13:52:11.746Z,27.53
2023-10-01T13:55:04.591Z,27.52
2023-10-01T13:57:50.395Z,27.39
2023-10-01T14:00:39.037Z,27.45
2023-10-01T14:03:49.435Z,27.19
2023-10-01T14:06:37.661Z,27.33
2023-10-01T14:09:10.806Z,27.39
2023-10-01T14:11:42.824Z,27.57
2023-10-01T14:14:10.022Z,27.31
2023-10-01T14:16:36.801Z,27.07
2023-10-01T14:19:19.496Z,26.82
2023-10-01T14:21:53.400Z,27.25
2023-10-01T14:24:24.750Z,27.42
2023-10-01T14:26:53.439Z,27.42
2023-10-01T14:29:26.027Z,27.43
2023-10-01T14:31:53.358Z,26.69
2023-10-01T14:34:24.166Z,27.22
2023-10-01T14:37:01.492Z,27.18
2023-10-01T14:39:38.414Z,26.43
2023-10-01T14:42:05.767Z,26.86
2023-10-01T14:44:44.209Z,27.43
2023-10-01T14:47:19.328Z,27.35
2023-10-01T14:49:48.931Z,26.71
2023-10-01T14:52:24.455Z,27.32
2023-10-01T14:55:00.160Z,26.74
2023-10-01T14:57:26.889Z,27.38
2023-10-01T14:59:57.427Z,27.31
2023-10-01T15:02:41.487Z,27.34
2023-10-01T15:05:18.466Z,27.16
2023-10-01T15:07:51.955Z,27.32
2023-10-01T15:10:23.460Z,27.15
2023-10-01T15:13:05.139Z,27.17
2023-10-01T15:16:00.778Z,27.13
2023-10-01T15:18:41.952Z,27.21
2023-10-01T15:21:25.682Z,27.17
2023-10-01T15:24:07.124Z,27.24
2023-10-01T15:26:50.639Z,27.26
2023-10-01T15:29:21.458Z,27.07
2023-10-01T15:31:56.624Z,27.23
2023-10-01T15:34:27.343Z,27.15
2023-10-01T15:37:03.851Z,26.96
2023-10-01T15:39:41.733Z,26.86
2023-10-01T15:42:12.531Z,26.89
2023-10-01T15:44:54.947Z,27.00
2023-10-01T15:47:42.380Z,26.96
2023-10-01T15:50:32.776Z,26.97
2023-10-01T15:53:08.842Z,26.93
2023-10-01T15:55:43.749Z,26.87
2023-10-01T15:58:19.768Z,26.88
2023-10-01T16:01:01.462Z,26.82
2023-10-01T16:03:42.935Z,26.58
2023-10-01T16:06:11.824Z,26.79
2023-10-01T16:08:48.321Z,26.76
2023-10-01T16:11:15.403Z,26.75
2023-10-01T16:13:54.409Z,26.34
2023-10-01T16:16:27.886Z,26.54
2023-10-01T16:18:57.445Z,26.44
2023-10-01T16:21:25.727Z,26.54
2023-10-01T16:23:57.458Z,26.33
2023-10-01T16:26:29.679Z,26.46
2023-10-01T16:29:01.196Z,26.42
2023-10-01T16:31:30.047Z,26.26
2023-10-01T16:34:01.497Z,26.33
2023-10-01T16:36:30.340Z,26.06
2023-10-01T16:39:11.679Z,26.22
2023-10-01T16:41:42.687Z,26.12
2023-10-01T16:44:10.801Z,26.13
2023-10-01T16:46:39.581Z,25.99
2023-10-01T16:49:17.476Z,26.03
2023-10-01T16:51:47.700Z,25.77
2023-10-01T16:54:16.837Z,25.94
2023-10-01T16:56:52.451Z,25.82
2023-10-01T16:59:32.938Z,25.76
2023-10-01T17:02:03.104Z,25.64
2023-10-01T17:04:32.610Z,25.16
2023-10-01T17:07:02.150Z,25.37
2023-10-01T17:09:38.374Z,24.93
2023-10-01T17:12:06.297Z,25.42
2023-10-01T17:14:38.050Z,25.50
2023-10-01T17:17:05.861Z,25.55
2023-10-01T17:19:42.198Z,24.73
2023-10-01T17:22:10.446Z,25.40
2023-10-01T17:24:47.961Z,25.34
2023-10-01T17:27:18.019Z,25.27
2023-10-01T17:29:45.366Z,25.23
2023-10-01T17:32:18.116Z,25.25
2023-10-01T17:34:48.562Z,25.26
2023-10-01T17:37:24.485Z,25.42
2023-10-01T17:39:57.787Z,25.14
2023-10-01T17:42:27.688Z,25.49
2023-10-01T17:45:03.885Z,25.33
2023-10-01T17:47:47.331Z,25.26
2023-10-01T17:50:34.756Z,25.18
2023-10-01T17:53:13.468Z,25.26
2023-10-01T17:55:55.581Z,24.97
2023-10-01T17:58:34.687Z,25.12
2023-10-01T18:01:03.617Z,25.15
2023-10-01T18:03:39.380Z,25.07
2023-10-01T18:06:23.666Z,24.99
2023-10-01T18:08:52.681Z,24.58
2023-10-01T18:11:27.230Z,24.74
2023-10-01T18:13:58.506Z,24.98
2023-10-01T18:16:28.773Z,24.95
2023-10-01T18:19:08.178Z,24.61
2023-10-01T18:21:37.629Z,24.73
2023-10-01T18:24:43.356Z,24.85
2023-10-01T18:27:34.338Z,24.62
2023-10-01T18:30:20.755Z,24.68
2023-10-01T18:32:48.075Z,24.63
2023-10-01T18:35:15.042Z,24.68
2023-10-01T18:37:42.958Z,24.60
2023-10-01T18:40:21.667Z,24.49
2023-10-01T18:42:55.860Z,24.28
2023-10-01T18:45:24.673Z,24.43
2023-10-01T18:47:55.997Z,24.40
2023-10-01T18:50:22.956Z,24.37
2023-10-01T18:52:49.742Z,23.21
2023-10-01T18:55:16.579Z,24.17
2023-10-01T18:57:44.022Z,23.76
2023-10-01T19:00:24.108Z,23.59
2023-10-01T19:02:58.150Z,23.71
2023-10-01T19:05:34.266Z,22.53
2023-10-01T19:08:01.748Z,23.34
2023-10-01T19:10:32.190Z,23.84
2023-10-01T19:13:02.072Z,22.86
2023-10-01T19:15:30.229Z,23.28
2023-10-01T19:17:57.589Z,23.68
2023-10-01T19:20:28.981Z,23.07
2023-10-01T19:22:59.675Z,22.70
2023-10-01T19:25:29.306Z,23.02
2023-10-01T19:27:57.556Z,23.40
2023-10-01T19:30:36.821Z,22.63
2023-10-01T19:33:25.934Z,23.72
2023-10-01T19:36:05.306Z,23.44
2023-10-01T19:38:32.901Z,22.63
2023-10-01T19:41:04.771Z,22.23
2023-10-01T19:43:40.929Z,23.37
2023-10-01T19:46:16.405Z,23.33
2023-10-01T19:48:50.746Z,23.08
2023-10-01T19:51:24.433Z,22.69
2023-10-01T19:54:08.995Z,22.10
2023-10-01T19:56:43.331Z,22.31
2023-10-01T19:59:16.056Z,23.11
2023-10-01T20:01:44.037Z,22.11
2023-10-01T20:04:19.546Z,22.47
2023-10-01T20:06:51.615Z,21.92
2023-10-01T20:09:29.579Z,22.68
2023-10-01T20:12:00.023Z,22.69
2023-10-01T20:14:39.068Z,21.84
2023-10-01T20:17:17.787Z,23.10
2023-10-01T20:19:48.010Z,22.19
2023-10-01T20:22:30.607Z,22.63
2023-10-01T20:25:02.696Z,22.93
2023-10-01T20:27:30.366Z,22.87
2023-10-01T20:29:57.732Z,22.92
2023-10-01T20:32:24.795Z,22.76
2023-10-01T20:34:52.831Z,22.93
2023-10-01T20:37:21.794Z,22.98
2023-10-01T20:39:48.982Z,22.69
2023-10-01T20:42:39.734Z,23.00
2023-10-01T20:45:37.398Z,22.97
2023-10-01T20:48:12.444Z,22.86
2023-10-01T20:50:46.539Z,22.89
2023-10-01T20:53:18.816Z,22.35
2023-10-01T20:55:46.069Z,22.27
2023-10-01T20:58:17.938Z,22.70
2023-10-01T21:00:52.039Z,21.27
2023-10-01T21:03:23.167Z,22.48
2023-10-01T21:05:56.805Z,22.45
2023-10-01T21:08:26.628Z,21.05
2023-10-01T21:10:53.425Z,22.14
2023-10-01T21:13:29.615Z,21.31
2023-10-01T21:16:05.881Z,22.18
2023-10-01T21:18:36.938Z,22.19
2023-10-01T21:21:04.367Z,22.19
2023-10-01T21:23:39.183Z,21.91
2023-10-01T21:26:23.647Z,22.19
2023-10-01T21:28:56.842Z,21.92
2023-10-01T21:31:23.712Z,22.08
2023-10-01T21:34:01.851Z,21.92
2023-10-01T21:36:29.446Z,22.03
2023-10-01T21:38:56.495Z,21.79
2023-10-01T21:41:23.252Z,21.98
2023-10-01T21:43:49.979Z,21.95
2023-10-01T21:46:26.867Z,21.93
2023-10-01T21:48:54.437Z,21.74
2023-10-01T21:51:21.387Z,21.89
2023-10-01T21:53:48.293Z,21.67
2023-10-01T21:56:18.896Z,21.62
2023-10-01T21:59:02.156Z,21.19
2023-10-01T22:01:50.095Z,21.54
2023-10-01T22:04:25.672Z,20.98
2023-10-01T22:06:53.108Z,21.57
2023-10-01T22:09:24.774Z,21.64
2023-10-01T22:11:55.710Z,21.62
2023-10-01T22:14:42.071Z,21.59
2023-10-01T22:17:08.739Z,20.99
2023-10-01T22:19:47.172Z,21.46
2023-10-01T22:22:15.264Z,21.48
2023-10-01T22:24:42.215Z,21.38
2023-10-01T22:27:13.474Z,21.52
2023-10-01T22:29:41.331Z,21.26
2023-10-01T22:32:08.697Z,21.40
2023-10-01T22:34:41.317Z,21.47
2023-10-01T22:37:13.544Z,21.22
2023-10-01T22:39:59.972Z,21.25
2023-10-01T22:42:37.641Z,21.09
2023-10-01T22:45:28.471Z,20.96
2023-10-01T22:48:02.339Z,21.25
2023-10-01T22:50:36.319Z,21.31
2023-10-01T22:53:03.292Z,21.29
2023-10-01T22:55:30.448Z,21.25
2023-10-01T22:57:57.356Z,21.12
2023-10-01T23:00:25.005Z,21.19
2023-10-01T23:02:54.361Z,20.61
2023-10-01T23:05:29.205Z,21.31
2023-10-01T23:08:09.557Z,21.25
2023-10-01T23:10:41.800Z,21.11
2023-10-01T23:13:10.725Z,21.18
2023-10-01T23:15:50.022Z,20.64
2023-10-01T23:18:21.359Z,20.48
2023-10-01T23:20:52.040Z,21.13
2023-10-01T23:23:30.030Z,20.22
2023-10-01T23:26:29.164Z,21.05
2023-10-01T23:29:25.055Z,21.07
2023-10-01T23:32:13.050Z,21.00
2023-10-01T23:34:48.297Z,20.96
2023-10-01T23:37:41.847Z,20.97
2023-10-01T23:40:11.886Z,20.86
2023-10-01T23:42:46.534Z,20.81
2023-10-01T23:45:18.054Z,20.65
2023-10-01T23:48:01.730Z,20.21
2023-10-01T23:50:31.833Z,20.84
2023-10-01T23:53:20.056Z,20.79
2023-10-01T23:56:00.019Z,20.74
2023-10-01T23:58:39.403Z,20.76
